الصفحة الرئيسية
METAR-TAF:

METAR-TAF

مطار :

كالغورلي, أستراليا

دائرة عرض: 30-47S, خط طول: 121-27E, ارتفاع: 367 متر

مراقبة الطقس الحالي

تاريخ ووقت الإصدار 39 دقيقة قبل الساعة 21:30UTC
ريح 8 عقدة من الغرب/الشمال الغربي
درجة الحرارة 5°درجة مئوية
الرطوبة 93%
ضغط 1017 hPa
الرؤية 10 كم أو أكثر

METAR: YPKG 252130Z AUTO 29008KT 9999 // NCD 05/04 Q1017 RF00.0/002.4 PRESENT WEATHER SENSOR US

زمن: 06:09 (22:09 UTC)

توقعات

تاريخ ووقت الإصدار 6ساعات و 3 دقيقة قبل الساعة 16:06UTC
التوقعات صالحة من25 الساعة 18 UTC إلى 26 الساعة 18 UTC
ريح 10 عقدة من الغرب
الرؤية 10 كم أو أكثر
غيوم متفرقة على ارتفاع 3000 قدم
من 26 الساعة 0000 UTC
ريح 10 عقدة من الجنوب الغربي
الرؤية 10 كم أو أكثر
غيوم متفرقة على ارتفاع 5000 قدم

TAF: YPKG 251606Z 2518/2618 26010KT 9999 SCT030 FM260000 22010KT 9999 SCT050

أرصاد الطقس والتوقعات من أكثر من 4000 مطار (تقارير الطقس للمطار METAR والتنبؤ بالطقس بالمطارTAF).

المحطات المتاحة هي النقط الصفراء والحمراء على الخريطة.

حرك المؤشر فوق النقطة لمعرفة اسم المحطة.

ثم انقر لمعرفة أرصاد وتوقعات الطقس.

لتغيير الخارطة: اضغط على الأزرار الخضراء مع رمز الصليب الأسود للتكبير. على الزر الأخضر مع شرطة للتصغير، أو على الأسهم الخضراء للخرائط المجاورة.


METAR-TAF: